sensor_id;sensor_type;location;lat;lon;timestamp;temperature;humidity
148;DHT22;142;50.652;12.216;2023-02-08T00:01:17;-5.20;37.20
148;DHT22;142;50.652;12.216;2023-02-08T00:03:45;-5.20;37.30
148;DHT22;142;50.652;12.216;2023-02-08T00:06:14;-5.20;37.20
148;DHT22;142;50.652;12.216;2023-02-08T00:08:43;-5.20;37.20
148;DHT22;142;50.652;12.216;2023-02-08T00:11:13;-5.30;37.20
148;DHT22;142;50.652;12.216;2023-02-08T00:13:40;-5.30;37.20
148;DHT22;142;50.652;12.216;2023-02-08T00:16:08;-5.30;37.20
148;DHT22;142;50.652;12.216;2023-02-08T00:18:36;-5.30;37.20
148;DHT22;142;50.652;12.216;2023-02-08T00:21:07;-5.30;37.20
148;DHT22;142;50.652;12.216;2023-02-08T00:23:36;-5.30;37.20
148;DHT22;142;50.652;12.216;2023-02-08T00:26:04;-5.30;37.10
148;DHT22;142;50.652;12.216;2023-02-08T00:28:31;-5.30;37.10
148;DHT22;142;50.652;12.216;2023-02-08T00:30:58;-5.30;37.20
148;DHT22;142;50.652;12.216;2023-02-08T00:33:25;-5.30;37.20
148;DHT22;142;50.652;12.216;2023-02-08T00:35:57;-5.40;37.20
148;DHT22;142;50.652;12.216;2023-02-08T00:38:25;-5.40;37.20
148;DHT22;142;50.652;12.216;2023-02-08T00:40:54;-5.40;37.20
148;DHT22;142;50.652;12.216;2023-02-08T00:43:21;-5.40;37.10
148;DHT22;142;50.652;12.216;2023-02-08T00:45:53;-5.40;37.10
148;DHT22;142;50.652;12.216;2023-02-08T00:48:21;-5.50;37.10
148;DHT22;142;50.652;12.216;2023-02-08T00:50:59;-5.50;37.10
148;DHT22;142;50.652;12.216;2023-02-08T00:53:28;-5.60;37.20
148;DHT22;142;50.652;12.216;2023-02-08T00:55:56;-5.60;37.10
148;DHT22;142;50.652;12.216;2023-02-08T00:58:23;-5.60;37.10
148;DHT22;142;50.652;12.216;2023-02-08T01:00:52;-5.60;37.20
148;DHT22;142;50.652;12.216;2023-02-08T01:03:19;-5.70;37.10
148;DHT22;142;50.652;12.216;2023-02-08T01:05:46;-5.70;37.20
148;DHT22;142;50.652;12.216;2023-02-08T01:08:14;-5.80;37.20
148;DHT22;142;50.652;12.216;2023-02-08T01:10:41;-5.80;37.20
148;DHT22;142;50.652;12.216;2023-02-08T01:13:11;-5.90;37.20
148;DHT22;142;50.652;12.216;2023-02-08T01:15:39;-5.90;37.20
148;DHT22;142;50.652;12.216;2023-02-08T01:18:07;-5.90;37.20
148;DHT22;142;50.652;12.216;2023-02-08T01:20:35;-6.00;37.20
148;DHT22;142;50.652;12.216;2023-02-08T01:23:03;-5.90;37.10
148;DHT22;142;50.652;12.216;2023-02-08T01:25:30;-5.90;37.20
148;DHT22;142;50.652;12.216;2023-02-08T01:27:57;-5.90;37.20
148;DHT22;142;50.652;12.216;2023-02-08T01:30:26;-6.00;37.30
148;DHT22;142;50.652;12.216;2023-02-08T01:32:53;-6.00;37.20
148;DHT22;142;50.652;12.216;2023-02-08T01:35:20;-6.00;37.20
148;DHT22;142;50.652;12.216;2023-02-08T01:37:48;-5.90;37.10
148;DHT22;142;50.652;12.216;2023-02-08T01:40:16;-6.00;37.20
148;DHT22;142;50.652;12.216;2023-02-08T01:42:44;-6.00;37.20
148;DHT22;142;50.652;12.216;2023-02-08T01:45:24;-6.00;37.10
148;DHT22;142;50.652;12.216;2023-02-08T01:48:02;-6.00;37.10
148;DHT22;142;50.652;12.216;2023-02-08T01:50:35;-6.00;37.20
148;DHT22;142;50.652;12.216;2023-02-08T01:53:06;-6.00;37.20
148;DHT22;142;50.652;12.216;2023-02-08T01:55:36;-6.00;37.20
148;DHT22;142;50.652;12.216;2023-02-08T01:58:09;-6.00;37.10
148;DHT22;142;50.652;12.216;2023-02-08T02:00:37;-6.00;37.20
148;DHT22;142;50.652;12.216;2023-02-08T02:03:06;-6.10;37.20
148;DHT22;142;50.652;12.216;2023-02-08T02:05:39;-6.10;37.10
148;DHT22;142;50.652;12.216;2023-02-08T02:08:07;-6.10;37.10
148;DHT22;142;50.652;12.216;2023-02-08T02:10:37;-6.10;37.10
148;DHT22;142;50.652;12.216;2023-02-08T02:13:09;-6.10;37.20
148;DHT22;142;50.652;12.216;2023-02-08T02:15:37;-6.10;37.20
148;DHT22;142;50.652;12.216;2023-02-08T02:18:06;-6.10;37.10
148;DHT22;142;50.652;12.216;2023-02-08T02:20:45;-6.10;37.20
148;DHT22;142;50.652;12.216;2023-02-08T02:35:41;-6.40;37.30
148;DHT22;142;50.652;12.216;2023-02-08T02:38:17;-6.40;37.20
148;DHT22;142;50.652;12.216;2023-02-08T02:40:53;-6.30;37.30
148;DHT22;142;50.652;12.216;2023-02-08T02:43:29;-6.30;37.20
148;DHT22;142;50.652;12.216;2023-02-08T02:46:22;-6.30;37.20
148;DHT22;142;50.652;12.216;2023-02-08T02:48:58;-6.30;37.30
148;DHT22;142;50.652;12.216;2023-02-08T02:51:33;-6.40;37.30
148;DHT22;142;50.652;12.216;2023-02-08T02:54:07;-6.40;37.20
148;DHT22;142;50.652;12.216;2023-02-08T02:56:39;-6.40;37.30
148;DHT22;142;50.652;12.216;2023-02-08T02:59:10;-6.40;37.30
148;DHT22;142;50.652;12.216;2023-02-08T03:01:39;-6.40;37.30
148;DHT22;142;50.652;12.216;2023-02-08T03:04:17;-6.40;37.30
148;DHT22;142;50.652;12.216;2023-02-08T03:06:57;-6.40;37.30
148;DHT22;142;50.652;12.216;2023-02-08T03:09:49;-6.40;37.30
148;DHT22;142;50.652;12.216;2023-02-08T03:12:28;-6.40;37.30
148;DHT22;142;50.652;12.216;2023-02-08T03:14:59;-6.40;37.30
148;DHT22;142;50.652;12.216;2023-02-08T03:17:36;-6.40;37.40
148;DHT22;142;50.652;12.216;2023-02-08T03:20:13;-6.50;37.40
148;DHT22;142;50.652;12.216;2023-02-08T03:22:52;-6.60;37.30
148;DHT22;142;50.652;12.216;2023-02-08T03:25:31;-6.60;37.20
148;DHT22;142;50.652;12.216;2023-02-08T03:28:04;-6.50;37.30
148;DHT22;142;50.652;12.216;2023-02-08T03:30:38;-6.50;37.30
148;DHT22;142;50.652;12.216;2023-02-08T03:33:15;-6.50;37.30
148;DHT22;142;50.652;12.216;2023-02-08T03:35:52;-6.50;37.30
148;DHT22;142;50.652;12.216;2023-02-08T03:38:24;-6.50;37.40
148;DHT22;142;50.652;12.216;2023-02-08T03:40:55;-6.60;37.40
148;DHT22;142;50.652;12.216;2023-02-08T03:43:28;-6.70;37.30
148;DHT22;142;50.652;12.216;2023-02-08T03:46:01;-6.70;37.30
148;DHT22;142;50.652;12.216;2023-02-08T03:48:31;-6.70;37.30
148;DHT22;142;50.652;12.216;2023-02-08T03:51:05;-6.70;37.30
148;DHT22;142;50.652;12.216;2023-02-08T03:53:36;-6.60;37.30
148;DHT22;142;50.652;12.216;2023-02-08T03:56:09;-6.60;37.30
148;DHT22;142;50.652;12.216;2023-02-08T03:58:41;-6.50;37.30
148;DHT22;142;50.652;12.216;2023-02-08T04:01:15;-6.60;37.30
148;DHT22;142;50.652;12.216;2023-02-08T04:03:44;-6.60;37.30
148;DHT22;142;50.652;12.216;2023-02-08T04:06:15;-6.70;37.40
148;DHT22;142;50.652;12.216;2023-02-08T04:08:42;-6.70;37.40
148;DHT22;142;50.652;12.216;2023-02-08T04:11:09;-6.80;37.30
148;DHT22;142;50.652;12.216;2023-02-08T04:13:37;-6.80;37.30
148;DHT22;142;50.652;12.216;2023-02-08T04:16:04;-6.80;37.30
148;DHT22;142;50.652;12.216;2023-02-08T04:18:33;-6.70;37.30
148;DHT22;142;50.652;12.216;2023-02-08T04:21:00;-6.70;37.40
148;DHT22;142;50.652;12.216;2023-02-08T04:23:29;-6.70;37.40
148;DHT22;142;50.652;12.216;2023-02-08T04:25:56;-6.70;37.30
148;DHT22;142;50.652;12.216;2023-02-08T04:28:23;-6.70;37.40
148;DHT22;142;50.652;12.216;2023-02-08T04:30:53;-6.80;37.30
148;DHT22;142;50.652;12.216;2023-02-08T04:33:21;-6.80;37.30
148;DHT22;142;50.652;12.216;2023-02-08T04:35:48;-6.70;37.40
148;DHT22;142;50.652;12.216;2023-02-08T04:38:16;-6.70;37.40
148;DHT22;142;50.652;12.216;2023-02-08T04:40:45;-6.80;37.30
148;DHT22;142;50.652;12.216;2023-02-08T04:43:13;-6.80;37.40
148;DHT22;142;50.652;12.216;2023-02-08T04:45:40;-6.80;37.30
148;DHT22;142;50.652;12.216;2023-02-08T04:48:07;-6.80;37.40
148;DHT22;142;50.652;12.216;2023-02-08T04:50:35;-6.80;37.30
148;DHT22;142;50.652;12.216;2023-02-08T04:53:02;-6.90;37.40
148;DHT22;142;50.652;12.216;2023-02-08T04:55:29;-6.90;37.30
148;DHT22;142;50.652;12.216;2023-02-08T04:57:57;-6.90;37.30
148;DHT22;142;50.652;12.216;2023-02-08T05:00:25;-6.90;37.40
148;DHT22;142;50.652;12.216;2023-02-08T05:02:53;-6.90;37.40
148;DHT22;142;50.652;12.216;2023-02-08T05:05:22;-6.90;37.40
148;DHT22;142;50.652;12.216;2023-02-08T05:07:49;-6.90;37.40
148;DHT22;142;50.652;12.216;2023-02-08T05:10:16;-6.90;37.40
148;DHT22;142;50.652;12.216;2023-02-08T05:12:43;-7.00;37.60
148;DHT22;142;50.652;12.216;2023-02-08T05:15:12;-7.10;37.40
148;DHT22;142;50.652;12.216;2023-02-08T05:17:41;-7.10;37.40
148;DHT22;142;50.652;12.216;2023-02-08T05:20:10;-7.10;37.40
148;DHT22;142;50.652;12.216;2023-02-08T05:22:37;-7.20;37.40
148;DHT22;142;50.652;12.216;2023-02-08T05:25:05;-7.20;37.30
148;DHT22;142;50.652;12.216;2023-02-08T05:27:33;-7.20;37.40
148;DHT22;142;50.652;12.216;2023-02-08T05:30:01;-7.10;37.40
148;DHT22;142;50.652;12.216;2023-02-08T05:32:29;-7.10;37.50
148;DHT22;142;50.652;12.216;2023-02-08T05:34:56;-7.20;37.50
148;DHT22;142;50.652;12.216;2023-02-08T05:37:24;-7.10;37.40
148;DHT22;142;50.652;12.216;2023-02-08T05:39:51;-7.20;37.50
148;DHT22;142;50.652;12.216;2023-02-08T05:42:18;-7.10;37.40
148;DHT22;142;50.652;12.216;2023-02-08T05:44:45;-7.10;37.50
148;DHT22;142;50.652;12.216;2023-02-08T05:47:12;-7.10;37.50
148;DHT22;142;50.652;12.216;2023-02-08T05:49:43;-7.00;37.40
148;DHT22;142;50.652;12.216;2023-02-08T05:52:10;-7.00;37.50
148;DHT22;142;50.652;12.216;2023-02-08T05:54:38;-7.00;37.60
148;DHT22;142;50.652;12.216;2023-02-08T05:57:05;-7.10;37.70
148;DHT22;142;50.652;12.216;2023-02-08T05:59:33;-7.10;37.50
148;DHT22;142;50.652;12.216;2023-02-08T06:02:01;-7.20;37.70
148;DHT22;142;50.652;12.216;2023-02-08T06:04:29;-7.30;37.50
148;DHT22;142;50.652;12.216;2023-02-08T06:06:59;-7.30;37.50
148;DHT22;142;50.652;12.216;2023-02-08T06:09:26;-7.30;37.50
148;DHT22;142;50.652;12.216;2023-02-08T06:11:54;-7.30;37.50
148;DHT22;142;50.652;12.216;2023-02-08T06:14:23;-7.40;37.70
148;DHT22;142;50.652;12.216;2023-02-08T06:16:50;-7.40;37.60
148;DHT22;142;50.652;12.216;2023-02-08T06:19:18;-7.30;37.50
148;DHT22;142;50.652;12.216;2023-02-08T06:21:45;-7.30;37.70
148;DHT22;142;50.652;12.216;2023-02-08T06:24:14;-7.40;37.80
148;DHT22;142;50.652;12.216;2023-02-08T06:26:44;-7.30;37.40
148;DHT22;142;50.652;12.216;2023-02-08T06:29:14;-7.30;37.70
148;DHT22;142;50.652;12.216;2023-02-08T06:31:43;-7.40;37.70
148;DHT22;142;50.652;12.216;2023-02-08T06:34:11;-7.40;37.50
148;DHT22;142;50.652;12.216;2023-02-08T06:36:38;-7.30;37.50
148;DHT22;142;50.652;12.216;2023-02-08T06:39:06;-7.20;37.50
148;DHT22;142;50.652;12.216;2023-02-08T06:41:35;-7.20;37.50
148;DHT22;142;50.652;12.216;2023-02-08T06:44:02;-7.10;37.40
148;DHT22;142;50.652;12.216;2023-02-08T06:46:30;-7.00;37.60
148;DHT22;142;50.652;12.216;2023-02-08T06:48:57;-7.10;37.70
148;DHT22;142;50.652;12.216;2023-02-08T06:51:25;-7.20;37.70
148;DHT22;142;50.652;12.216;2023-02-08T06:53:52;-7.10;37.40
148;DHT22;142;50.652;12.216;2023-02-08T06:56:19;-7.20;37.70
148;DHT22;142;50.652;12.216;2023-02-08T06:58:48;-7.20;37.70
148;DHT22;142;50.652;12.216;2023-02-08T07:01:15;-7.30;37.80
148;DHT22;142;50.652;12.216;2023-02-08T07:03:44;-7.40;37.60
148;DHT22;142;50.652;12.216;2023-02-08T07:06:12;-7.50;37.70
148;DHT22;142;50.652;12.216;2023-02-08T07:08:41;-7.50;37.50
148;DHT22;142;50.652;12.216;2023-02-08T07:11:09;-7.40;37.50
148;DHT22;142;50.652;12.216;2023-02-08T07:13:37;-7.50;37.70
148;DHT22;142;50.652;12.216;2023-02-08T07:16:08;-7.40;37.60
148;DHT22;142;50.652;12.216;2023-02-08T07:18:36;-7.40;37.70
148;DHT22;142;50.652;12.216;2023-02-08T07:21:03;-7.30;37.50
148;DHT22;142;50.652;12.216;2023-02-08T07:23:30;-7.30;37.70
148;DHT22;142;50.652;12.216;2023-02-08T07:25:58;-7.30;37.50
148;DHT22;142;50.652;12.216;2023-02-08T07:28:26;-7.20;37.70
148;DHT22;142;50.652;12.216;2023-02-08T07:30:54;-7.20;37.70
148;DHT22;142;50.652;12.216;2023-02-08T07:33:23;-7.20;37.50
148;DHT22;142;50.652;12.216;2023-02-08T07:35:51;-7.20;37.70
148;DHT22;142;50.652;12.216;2023-02-08T07:38:18;-7.20;37.50
148;DHT22;142;50.652;12.216;2023-02-08T07:40:45;-7.10;37.50
148;DHT22;142;50.652;12.216;2023-02-08T07:43:16;-7.10;37.50
148;DHT22;142;50.652;12.216;2023-02-08T07:45:43;-7.00;37.50
148;DHT22;142;50.652;12.216;2023-02-08T07:48:15;-6.90;37.40
148;DHT22;142;50.652;12.216;2023-02-08T07:50:43;-6.80;37.50
148;DHT22;142;50.652;12.216;2023-02-08T07:53:11;-6.80;37.50
148;DHT22;142;50.652;12.216;2023-02-08T07:55:40;-6.70;37.60
148;DHT22;142;50.652;12.216;2023-02-08T07:58:09;-6.70;37.30
148;DHT22;142;50.652;12.216;2023-02-08T08:00:36;-6.70;37.50
148;DHT22;142;50.652;12.216;2023-02-08T08:03:04;-6.60;37.30
148;DHT22;142;50.652;12.216;2023-02-08T08:05:32;-6.50;37.30
148;DHT22;142;50.652;12.216;2023-02-08T08:08:01;-6.40;37.40
148;DHT22;142;50.652;12.216;2023-02-08T08:10:29;-6.40;37.40
148;DHT22;142;50.652;12.216;2023-02-08T08:12:56;-6.30;37.20
148;DHT22;142;50.652;12.216;2023-02-08T08:15:23;-6.20;37.20
148;DHT22;142;50.652;12.216;2023-02-08T08:17:52;-6.20;37.20
148;DHT22;142;50.652;12.216;2023-02-08T08:20:20;-6.20;37.20
148;DHT22;142;50.652;12.216;2023-02-08T08:22:48;-6.10;37.10
148;DHT22;142;50.652;12.216;2023-02-08T08:25:17;-6.00;37.10
148;DHT22;142;50.652;12.216;2023-02-08T08:27:44;-5.90;37.30
148;DHT22;142;50.652;12.216;2023-02-08T08:30:15;-5.90;37.10
148;DHT22;142;50.652;12.216;2023-02-08T08:32:42;-5.80;37.10
148;DHT22;142;50.652;12.216;2023-02-08T08:35:10;-5.60;37.10
148;DHT22;142;50.652;12.216;2023-02-08T08:37:38;-5.60;37.10
148;DHT22;142;50.652;12.216;2023-02-08T08:40:06;-5.50;37.00
148;DHT22;142;50.652;12.216;2023-02-08T08:42:35;-5.40;37.10
148;DHT22;142;50.652;12.216;2023-02-08T08:45:04;-5.30;36.90
148;DHT22;142;50.652;12.216;2023-02-08T08:47:32;-5.10;36.90
148;DHT22;142;50.652;12.216;2023-02-08T08:50:00;-5.00;37.00
148;DHT22;142;50.652;12.216;2023-02-08T08:52:27;-4.90;36.90
148;DHT22;142;50.652;12.216;2023-02-08T08:54:56;-4.80;37.00
148;DHT22;142;50.652;12.216;2023-02-08T08:57:23;-4.80;36.90
148;DHT22;142;50.652;12.216;2023-02-08T08:59:52;-4.70;36.80
148;DHT22;142;50.652;12.216;2023-02-08T09:02:19;-4.70;36.70
148;DHT22;142;50.652;12.216;2023-02-08T09:04:46;-4.60;36.70
148;DHT22;142;50.652;12.216;2023-02-08T09:07:14;-4.40;36.70
148;DHT22;142;50.652;12.216;2023-02-08T09:09:42;-4.20;36.80
148;DHT22;142;50.652;12.216;2023-02-08T09:12:12;-4.10;36.80
148;DHT22;142;50.652;12.216;2023-02-08T09:14:40;-4.00;36.60
148;DHT22;142;50.652;12.216;2023-02-08T09:17:10;-3.90;36.50
148;DHT22;142;50.652;12.216;2023-02-08T09:19:41;-3.70;36.60
148;DHT22;142;50.652;12.216;2023-02-08T09:22:08;-3.50;36.50
148;DHT22;142;50.652;12.216;2023-02-08T09:24:35;-3.40;36.60
148;DHT22;142;50.652;12.216;2023-02-08T09:27:03;-3.40;36.60
148;DHT22;142;50.652;12.216;2023-02-08T09:29:30;-3.30;36.30
148;DHT22;142;50.652;12.216;2023-02-08T09:32:00;-3.20;36.30
148;DHT22;142;50.652;12.216;2023-02-08T09:34:29;-3.10;36.40
148;DHT22;142;50.652;12.216;2023-02-08T09:36:56;-3.00;36.50
148;DHT22;142;50.652;12.216;2023-02-08T09:39:24;-2.90;36.20
148;DHT22;142;50.652;12.216;2023-02-08T09:42:19;-2.80;36.10
148;DHT22;142;50.652;12.216;2023-02-08T09:45:10;-2.60;36.10
148;DHT22;142;50.652;12.216;2023-02-08T09:47:44;-2.50;36.00
148;DHT22;142;50.652;12.216;2023-02-08T09:50:21;-2.40;36.00
148;DHT22;142;50.652;12.216;2023-02-08T09:52:56;-2.30;36.00
148;DHT22;142;50.652;12.216;2023-02-08T09:55:31;-2.10;35.90
148;DHT22;142;50.652;12.216;2023-02-08T09:58:03;-1.90;36.00
148;DHT22;142;50.652;12.216;2023-02-08T10:00:39;-1.90;35.80
148;DHT22;142;50.652;12.216;2023-02-08T10:03:20;-1.70;35.70
148;DHT22;142;50.652;12.216;2023-02-08T10:05:51;-1.50;35.70
148;DHT22;142;50.652;12.216;2023-02-08T10:08:19;-1.40;35.60
148;DHT22;142;50.652;12.216;2023-02-08T10:10:52;-1.20;35.60
148;DHT22;142;50.652;12.216;2023-02-08T10:13:33;-1.10;35.70
148;DHT22;142;50.652;12.216;2023-02-08T10:16:09;-1.20;35.40
148;DHT22;142;50.652;12.216;2023-02-08T10:18:46;-1.10;35.40
148;DHT22;142;50.652;12.216;2023-02-08T10:21:44;-1.00;35.30
148;DHT22;142;50.652;12.216;2023-02-08T10:27:22;-0.70;35.20
148;DHT22;142;50.652;12.216;2023-02-08T10:30:17;-0.60;35.30
148;DHT22;142;50.652;12.216;2023-02-08T10:32:58;-0.50;35.30
148;DHT22;142;50.652;12.216;2023-02-08T10:35:29;-0.50;35.30
148;DHT22;142;50.652;12.216;2023-02-08T10:40:44;-0.40;35.20
148;DHT22;142;50.652;12.216;2023-02-08T10:43:18;-0.30;35.00
148;DHT22;142;50.652;12.216;2023-02-08T10:45:51;-0.20;35.10
148;DHT22;142;50.652;12.216;2023-02-08T10:48:28;-0.20;35.20
148;DHT22;142;50.652;12.216;2023-02-08T10:50:58;-0.20;35.10
148;DHT22;142;50.652;12.216;2023-02-08T10:53:27;-0.10;34.80
148;DHT22;142;50.652;12.216;2023-02-08T10:55:55;0.00;35.20
148;DHT22;142;50.652;12.216;2023-02-08T10:58:24;0.00;35.00
148;DHT22;142;50.652;12.216;2023-02-08T11:00:53;0.00;35.00
148;DHT22;142;50.652;12.216;2023-02-08T11:03:24;0.20;34.70
148;DHT22;142;50.652;12.216;2023-02-08T11:05:52;0.30;35.00
148;DHT22;142;50.652;12.216;2023-02-08T11:08:22;0.40;35.10
148;DHT22;142;50.652;12.216;2023-02-08T11:10:59;0.40;35.00
148;DHT22;142;50.652;12.216;2023-02-08T11:13:33;0.40;34.80
148;DHT22;142;50.652;12.216;2023-02-08T11:16:03;0.60;34.70
148;DHT22;142;50.652;12.216;2023-02-08T11:18:36;0.70;35.30
148;DHT22;142;50.652;12.216;2023-02-08T11:21:07;0.80;34.90
148;DHT22;142;50.652;12.216;2023-02-08T11:23:39;1.00;34.90
148;DHT22;142;50.652;12.216;2023-02-08T11:26:21;1.20;35.30
148;DHT22;142;50.652;12.216;2023-02-08T11:28:59;1.20;35.00
148;DHT22;142;50.652;12.216;2023-02-08T11:31:27;1.20;34.90
148;DHT22;142;50.652;12.216;2023-02-08T11:34:00;1.30;34.80
148;DHT22;142;50.652;12.216;2023-02-08T11:36:31;1.50;34.80
148;DHT22;142;50.652;12.216;2023-02-08T11:39:01;1.50;34.80
148;DHT22;142;50.652;12.216;2023-02-08T11:41:30;1.60;35.00
148;DHT22;142;50.652;12.216;2023-02-08T11:44:01;1.70;35.70
148;DHT22;142;50.652;12.216;2023-02-08T11:46:31;1.90;35.20
148;DHT22;142;50.652;12.216;2023-02-08T11:48:59;2.00;35.50
148;DHT22;142;50.652;12.216;2023-02-08T11:51:30;2.10;35.20
148;DHT22;142;50.652;12.216;2023-02-08T11:53:59;2.20;35.80
148;DHT22;142;50.652;12.216;2023-02-08T11:56:31;2.20;36.70
148;DHT22;142;50.652;12.216;2023-02-08T11:59:02;2.20;38.70
148;DHT22;142;50.652;12.216;2023-02-08T12:01:34;2.20;40.20
148;DHT22;142;50.652;12.216;2023-02-08T12:04:04;2.20;42.00
148;DHT22;142;50.652;12.216;2023-02-08T12:07:05;2.30;43.30
148;DHT22;142;50.652;12.216;2023-02-08T12:13:16;2.50;76.80
148;DHT22;142;50.652;12.216;2023-02-08T12:15:56;2.70;78.60
148;DHT22;142;50.652;12.216;2023-02-08T12:18:50;2.70;80.30
148;DHT22;142;50.652;12.216;2023-02-08T12:21:23;2.70;80.90
148;DHT22;142;50.652;12.216;2023-02-08T12:23:53;2.80;81.10
148;DHT22;142;50.652;12.216;2023-02-08T12:26:38;2.80;81.60
148;DHT22;142;50.652;12.216;2023-02-08T12:29:21;2.80;81.70
148;DHT22;142;50.652;12.216;2023-02-08T12:32:05;2.60;81.80
148;DHT22;142;50.652;12.216;2023-02-08T12:34:47;2.60;81.90
148;DHT22;142;50.652;12.216;2023-02-08T12:37:26;2.70;82.10
148;DHT22;142;50.652;12.216;2023-02-08T12:40:24;2.80;82.10
148;DHT22;142;50.652;12.216;2023-02-08T12:46:15;2.90;82.30
148;DHT22;142;50.652;12.216;2023-02-08T12:48:54;3.00;82.50
148;DHT22;142;50.652;12.216;2023-02-08T12:51:28;2.90;82.20
148;DHT22;142;50.652;12.216;2023-02-08T12:54:01;3.00;82.50
148;DHT22;142;50.652;12.216;2023-02-08T12:56:34;3.10;82.40
148;DHT22;142;50.652;12.216;2023-02-08T12:59:02;3.00;82.30
148;DHT22;142;50.652;12.216;2023-02-08T13:01:39;3.10;82.50
148;DHT22;142;50.652;12.216;2023-02-08T13:04:09;3.10;82.80
148;DHT22;142;50.652;12.216;2023-02-08T13:06:40;3.10;82.70
148;DHT22;142;50.652;12.216;2023-02-08T13:09:14;3.20;82.80
148;DHT22;142;50.652;12.216;2023-02-08T13:11:47;3.10;82.70
148;DHT22;142;50.652;12.216;2023-02-08T13:14:25;3.10;82.70
148;DHT22;142;50.652;12.216;2023-02-08T13:16:59;3.10;82.70
148;DHT22;142;50.652;12.216;2023-02-08T13:19:33;3.20;82.90
148;DHT22;142;50.652;12.216;2023-02-08T13:22:05;3.30;82.80
148;DHT22;142;50.652;12.216;2023-02-08T13:24:35;3.20;82.70
148;DHT22;142;50.652;12.216;2023-02-08T13:27:03;3.20;82.80
148;DHT22;142;50.652;12.216;2023-02-08T13:29:33;3.20;82.90
148;DHT22;142;50.652;12.216;2023-02-08T13:32:04;3.20;82.70
148;DHT22;142;50.652;12.216;2023-02-08T13:34:36;3.20;82.90
148;DHT22;142;50.652;12.216;2023-02-08T13:37:22;3.30;83.00
148;DHT22;142;50.652;12.216;2023-02-08T13:39:58;3.40;82.90
148;DHT22;142;50.652;12.216;2023-02-08T13:42:28;3.50;87.10
148;DHT22;142;50.652;12.216;2023-02-08T13:44:57;3.50;87.30
148;DHT22;142;50.652;12.216;2023-02-08T13:47:28;3.60;87.20
148;DHT22;142;50.652;12.216;2023-02-08T13:49:58;3.60;88.00
148;DHT22;142;50.652;12.216;2023-02-08T13:52:48;3.60;88.00
148;DHT22;142;50.652;12.216;2023-02-08T13:55:38;3.60;88.00
148;DHT22;142;50.652;12.216;2023-02-08T13:58:27;3.60;88.20
148;DHT22;142;50.652;12.216;2023-02-08T14:01:16;3.60;88.10
148;DHT22;142;50.652;12.216;2023-02-08T14:04:15;3.60;88.20
148;DHT22;142;50.652;12.216;2023-02-08T14:06:47;3.50;88.30
148;DHT22;142;50.652;12.216;2023-02-08T14:09:21;3.40;88.40
148;DHT22;142;50.652;12.216;2023-02-08T14:11:55;3.40;88.60
148;DHT22;142;50.652;12.216;2023-02-08T14:14:25;3.40;88.70
148;DHT22;142;50.652;12.216;2023-02-08T14:17:17;3.40;88.70
148;DHT22;142;50.652;12.216;2023-02-08T14:19:56;3.40;88.70
148;DHT22;142;50.652;12.216;2023-02-08T14:22:26;3.40;88.60
148;DHT22;142;50.652;12.216;2023-02-08T14:25:03;3.30;88.60
148;DHT22;142;50.652;12.216;2023-02-08T14:27:34;3.30;88.80
148;DHT22;142;50.652;12.216;2023-02-08T14:30:05;3.30;88.80
148;DHT22;142;50.652;12.216;2023-02-08T14:32:36;3.30;88.80
148;DHT22;142;50.652;12.216;2023-02-08T14:35:07;3.20;89.00
148;DHT22;142;50.652;12.216;2023-02-08T14:37:35;3.20;89.00
148;DHT22;142;50.652;12.216;2023-02-08T14:40:33;3.20;89.10
148;DHT22;142;50.652;12.216;2023-02-08T14:43:02;3.20;89.20
148;DHT22;142;50.652;12.216;2023-02-08T14:45:33;3.40;89.00
148;DHT22;142;50.652;12.216;2023-02-08T14:48:16;3.30;88.90
148;DHT22;142;50.652;12.216;2023-02-08T14:51:13;3.20;89.10
148;DHT22;142;50.652;12.216;2023-02-08T14:53:47;3.20;89.20
148;DHT22;142;50.652;12.216;2023-02-08T14:56:19;3.20;89.30
148;DHT22;142;50.652;12.216;2023-02-08T14:58:50;3.20;89.10
148;DHT22;142;50.652;12.216;2023-02-08T15:01:20;3.20;89.20
148;DHT22;142;50.652;12.216;2023-02-08T15:03:50;3.20;89.10
148;DHT22;142;50.652;12.216;2023-02-08T15:06:59;3.10;89.20
148;DHT22;142;50.652;12.216;2023-02-08T15:09:29;3.10;89.30
148;DHT22;142;50.652;12.216;2023-02-08T15:12:00;3.10;89.10
148;DHT22;142;50.652;12.216;2023-02-08T15:14:29;3.00;89.00
148;DHT22;142;50.652;12.216;2023-02-08T15:16:57;2.80;89.00
148;DHT22;142;50.652;12.216;2023-02-08T15:19:27;2.70;88.70
148;DHT22;142;50.652;12.216;2023-02-08T15:22:16;2.60;89.50
148;DHT22;142;50.652;12.216;2023-02-08T15:24:49;2.70;88.70
148;DHT22;142;50.652;12.216;2023-02-08T15:27:20;2.70;88.50
148;DHT22;142;50.652;12.216;2023-02-08T15:29:47;2.60;88.00
148;DHT22;142;50.652;12.216;2023-02-08T15:32:18;2.60;87.90
148;DHT22;142;50.652;12.216;2023-02-08T15:34:49;2.60;88.00
148;DHT22;142;50.652;12.216;2023-02-08T15:37:21;2.60;87.10
148;DHT22;142;50.652;12.216;2023-02-08T15:39:51;2.60;87.80
148;DHT22;142;50.652;12.216;2023-02-08T15:42:22;2.60;88.00
148;DHT22;142;50.652;12.216;2023-02-08T15:44:51;2.60;88.30
148;DHT22;142;50.652;12.216;2023-02-08T15:47:22;2.50;88.60
148;DHT22;142;50.652;12.216;2023-02-08T15:49:52;2.50;89.00
148;DHT22;142;50.652;12.216;2023-02-08T15:52:26;2.40;89.20
148;DHT22;142;50.652;12.216;2023-02-08T15:54:54;2.20;89.20
148;DHT22;142;50.652;12.216;2023-02-08T15:57:32;2.20;89.40
148;DHT22;142;50.652;12.216;2023-02-08T16:00:01;2.10;89.40
148;DHT22;142;50.652;12.216;2023-02-08T16:02:29;2.00;89.50
148;DHT22;142;50.652;12.216;2023-02-08T16:04:59;1.90;89.70
148;DHT22;142;50.652;12.216;2023-02-08T16:07:32;1.80;90.00
148;DHT22;142;50.652;12.216;2023-02-08T16:10:01;1.80;90.10
148;DHT22;142;50.652;12.216;2023-02-08T16:12:28;1.70;90.10
148;DHT22;142;50.652;12.216;2023-02-08T16:14:56;1.50;90.40
148;DHT22;142;50.652;12.216;2023-02-08T16:17:31;1.50;90.50
148;DHT22;142;50.652;12.216;2023-02-08T16:19:59;1.30;90.50
148;DHT22;142;50.652;12.216;2023-02-08T16:22:31;1.10;90.40
148;DHT22;142;50.652;12.216;2023-02-08T16:25:24;1.00;90.40
148;DHT22;142;50.652;12.216;2023-02-08T16:27:58;0.90;90.10
148;DHT22;142;50.652;12.216;2023-02-08T16:30:25;0.80;89.80
148;DHT22;142;50.652;12.216;2023-02-08T16:32:53;0.70;89.80
148;DHT22;142;50.652;12.216;2023-02-08T16:35:23;0.70;89.10
148;DHT22;142;50.652;12.216;2023-02-08T16:37:59;0.60;88.80
148;DHT22;142;50.652;12.216;2023-02-08T16:40:41;0.50;87.80
148;DHT22;142;50.652;12.216;2023-02-08T16:43:20;0.50;87.70
148;DHT22;142;50.652;12.216;2023-02-08T16:46:21;0.50;87.60
148;DHT22;142;50.652;12.216;2023-02-08T16:48:52;0.60;88.40
148;DHT22;142;50.652;12.216;2023-02-08T16:51:21;0.50;89.50
148;DHT22;142;50.652;12.216;2023-02-08T16:53:55;0.60;89.80
148;DHT22;142;50.652;12.216;2023-02-08T16:56:23;0.60;90.30
148;DHT22;142;50.652;12.216;2023-02-08T16:58:50;0.60;90.30
148;DHT22;142;50.652;12.216;2023-02-08T17:01:18;0.70;90.70
148;DHT22;142;50.652;12.216;2023-02-08T17:03:45;0.70;90.30
148;DHT22;142;50.652;12.216;2023-02-08T17:06:26;0.80;90.60
148;DHT22;142;50.652;12.216;2023-02-08T17:09:01;0.80;90.60
148;DHT22;142;50.652;12.216;2023-02-08T17:11:29;0.70;90.50
148;DHT22;142;50.652;12.216;2023-02-08T17:13:57;0.70;90.60
148;DHT22;142;50.652;12.216;2023-02-08T17:16:27;0.60;90.60
148;DHT22;142;50.652;12.216;2023-02-08T17:18:56;0.50;90.60